Map

Track Data

SID SEASON NUMBER BASIN SUBBASIN NAME ISO_TIME NATURE LAT LON WMO_WIND WMO_PRES WMO_AGENCY TRACK_TYPE DIST2LAND LANDFALL IFLAG USA_AGENCY USA_ATCF_ID USA_LAT USA_LON USA_RECORD USA_STATUS USA_WIND USA_PRES USA_SSHS USA_R34_NE USA_R34_SE USA_R34_SW USA_R34_NW USA_R50_NE USA_R50_SE USA_R50_SW USA_R50_NW USA_R64_NE USA_R64_SE USA_R64_SW USA_R64_NW USA_POCI USA_ROCI USA_RMW USA_EYE TOKYO_LAT TOKYO_LON TOKYO_GRADE TOKYO_WIND TOKYO_PRES TOKYO_R50_DIR TOKYO_R50_LONG TOKYO_R50_SHORT TOKYO_R30_DIR TOKYO_R30_LONG TOKYO_R30_SHORT TOKYO_LAND CMA_LAT CMA_LON CMA_CAT CMA_WIND CMA_PRES HKO_LAT HKO_LON HKO_CAT HKO_WIND HKO_PRES NEWDELHI_LAT NEWDELHI_LON NEWDELHI_GRADE NEWDELHI_WIND NEWDELHI_PRES NEWDELHI_CI NEWDELHI_DP NEWDELHI_POCI REUNION_LAT REUNION_LON REUNION_TYPE REUNION_WIND REUNION_PRES REUNION_TNUM REUNION_CI REUNION_RMW REUNION_R34_NE REUNION_R34_SE REUNION_R34_SW REUNION_R34_NW REUNION_R50_NE REUNION_R50_SE REUNION_R50_SW REUNION_R50_NW REUNION_R64_NE REUNION_R64_SE REUNION_R64_SW REUNION_R64_NW BOM_LAT BOM_LON BOM_TYPE BOM_WIND BOM_PRES BOM_TNUM BOM_CI BOM_RMW BOM_R34_NE BOM_R34_SE BOM_R34_SW BOM_R34_NW BOM_R50_NE BOM_R50_SE BOM_R50_SW BOM_R50_NW BOM_R64_NE BOM_R64_SE BOM_R64_SW BOM_R64_NW BOM_ROCI BOM_POCI BOM_EYE BOM_POS_METHOD BOM_PRES_METHOD NADI_LAT NADI_LON NADI_CAT NADI_WIND NADI_PRES WELLINGTON_LAT WELLINGTON_LON WELLINGTON_WIND WELLINGTON_PRES DS824_LAT DS824_LON DS824_STAGE DS824_WIND DS824_PRES TD9636_LAT TD9636_LON TD9636_STAGE TD9636_WIND TD9636_PRES TD9635_LAT TD9635_LON TD9635_WIND TD9635_PRES TD9635_ROCI NEUMANN_LAT NEUMANN_LON NEUMANN_CLASS NEUMANN_WIND NEUMANN_PRES MLC_LAT MLC_LON MLC_CLASS MLC_WIND MLC_PRES USA_GUST BOM_GUST BOM_GUST_PER REUNION_GUST REUNION_GUST_PER USA_SEAHGT USA_SEARAD_NE USA_SEARAD_SE USA_SEARAD_SW USA_SEARAD_NW STORM_SPEED STORM_DIR
1892263N15086 1892 46 NI BB NOT_NAMED 1892-09-19 00:00:00 TS 15.1000 86.1000 main 416 401 _________O____ -1 15.1000 86.1000 TC 30 2 305
1892263N15086 1892 46 NI BB NOT_NAMED 1892-09-19 03:00:00 TS 15.1683 86.0000 main 401 386 _________PO___ -1 15.2025 85.9500 TC 30 15.1000 86.1000 1 3 304
1892263N15086 1892 46 NI BB NOT_NAMED 1892-09-19 06:00:00 TS 15.2563 85.8600 main 386 370 _________OP___ -1 15.3000 85.8000 TC 30 15.1907 85.9501 1 3 303
1892263N15086 1892 46 NI BB NOT_NAMED 1892-09-19 09:00:00 TS 15.3465 85.7143 main 370 355 _________PP___ -1 15.3925 85.6500 TC 30 15.2851 85.8000 1 3 304
1892263N15086 1892 46 NI BB NOT_NAMED 1892-09-19 12:00:00 TS 15.4435 85.5750 main 355 324 _________OP___ -1 15.5000 85.5000 TC 30 15.3869 85.6500 1 4 309
1892263N15086 1892 46 NI BB NOT_NAMED 1892-09-19 15:00:00 TS 15.5750 85.4250 main 324 308 _________PO___ -1 15.6500 85.3500 TC 30 15.5000 85.5000 1 4 313
1892263N15086 1892 46 NI BB NOT_NAMED 1892-09-19 18:00:00 TS 15.7130 85.2750 main 308 285 _________OP___ -1 15.8000 85.2000 TC 30 15.6259 85.3500 1 4 312
1892263N15086 1892 46 NI BB NOT_NAMED 1892-09-19 21:00:00 TS 15.8325 85.1250 main 285 270 _________PP___ -1 15.9075 85.0500 TC 30 15.7575 85.2000 1 4 308
1892263N15086 1892 46 NI BB NOT_NAMED 1892-09-20 00:00:00 TS 15.9426 84.9750 main 270 247 _________OP___ -1 16.0000 84.9000 TC 30 15.8853 85.0500 1 4 308
1892263N15086 1892 46 NI BB NOT_NAMED 1892-09-20 03:00:00 TS 16.0537 84.8250 main 239 231 _________PO___ -1 16.1075 84.7500 TC 30 16.0000 84.9000 1 4 305
1892263N15086 1892 46 NI BB NOT_NAMED 1892-09-20 06:00:00 TS 16.1447 84.6729 main 231 209 _________OP___ -1 16.2000 84.6000 TC 30 16.0894 84.7459 1 3 298
1892263N15086 1892 46 NI BB NOT_NAMED 1892-09-20 09:00:00 TS 16.2112 84.5212 main 209 193 _________PP___ -1 16.2575 84.4500 TC 30 16.1650 84.5924 1 3 293
1892263N15086 1892 46 NI BB NOT_NAMED 1892-09-20 12:00:00 TS 16.2666 84.3714 main 193 180 _________OP___ -1 16.3000 84.3000 TC 30 16.2331 84.4428 1 3 291
1892263N15086 1892 46 NI BB NOT_NAMED 1892-09-20 15:00:00 TS 16.3213 84.2212 main 180 164 _________PO___ -1 16.3425 84.1425 TC 30 16.3000 84.3000 1 2 294
1892263N15086 1892 46 NI BB NOT_NAMED 1892-09-20 18:00:00 TS 16.3645 84.1401 main 164 164 _________OP___ -1 16.4000 84.0000 TC 30 16.3290 84.2802 1 1 312
1892263N15086 1892 46 NI BB NOT_NAMED 1892-09-20 21:00:00 TS 16.4099 84.1235 main 164 149 _________PP___ -1 16.4545 83.9969 TC 30 16.3652 84.2501 1 2 312
1892263N15086 1892 46 NI BB NOT_NAMED 1892-09-21 00:00:00 TS 16.5219 83.9600 main 149 104 _________OP___ -1 16.6000 83.8000 TC 30 16.4439 84.1200 1 7 298
1892263N15086 1892 46 NI BB NOT_NAMED 1892-09-21 03:00:00 TS 16.7565 83.4564 main 94 24 _________PO___ -1 16.9129 83.1128 TC 30 16.6000 83.8000 1 14 295
1892263N15086 1892 46 NI BB NOT_NAMED 1892-09-21 06:00:00 TS 17.0948 82.6750 main 24 0 _________OP___ -1 17.3000 82.2000 TC 30 16.8895 83.1500 1 17 294
1892263N15086 1892 46 NI BB NOT_NAMED 1892-09-21 09:00:00 TS 17.4580 81.8191 main 0 0 _________PP___ -1 17.6651 81.3276 TC 30 17.2510 82.3105 1 18 294
1892263N15086 1892 46 NI BB NOT_NAMED 1892-09-21 12:00:00 TS 17.8183 80.9452 main 0 0 _________OP___ -1 18.0000 80.5000 TC 30 17.6365 81.3904 1 17 293
1892263N15086 1892 46 NI BB NOT_NAMED 1892-09-21 15:00:00 TS 18.1322 80.1598 main 0 0 _________PO___ -1 18.2644 79.8195 TC 30 18.0000 80.5000 1 15 293
1892263N15086 1892 46 NI BB NOT_NAMED 1892-09-21 18:00:00 TS 18.3899 79.5008 main 0 0 _________OP___ -1 18.5000 79.2000 TC 30 18.3074 79.7264 1 13 292
1892263N15086 1892 46 NI BB NOT_NAMED 1892-09-21 21:00:00 TS 18.6377 78.8596 main 0 0 _________PP___ -1 18.7456 78.5605 TC 30 18.5657 79.0590 1 13 292
1892263N15086 1892 46 NI BB NOT_NAMED 1892-09-22 00:00:00 TS 18.8609 78.2748 main 0 0 _________OP___ -1 19.0000 77.9000 TC 30 18.7913 78.4622 1 10 292
1892263N15086 1892 46 NI AS NOT_NAMED 1892-09-22 03:00:00 NR 19.0000 77.9000 main 0 __________O___ -1 TC 19.0000 77.9000 1 8 292

About IBTrACS Database

This database is a web-friendly format of International Best Track Archive for Climate Stewardship (IBTrACS), a global best track data archive curated by NOAA dating back to 1842.

Updated: 2021-12-06